^^

Nearby METAR Reports

 

LIRH - Frosinone (it-Af, Italy
Distance from station: SO 5km
Dati ricevuti: 21/03/2019 12:55
Few Clouds
Few Clouds
 Vento da ESE
Vento: ESE 19 km/h
Temperatura: 20°C
P.to Rugiada: 5°C
Umidità: 38%
Barometro: 1023 hPa
Clouds: Few Clouds
Visibility: 10 km
Cloud details: Few Clouds 1219 m
2019/03/21 11:55 LIRH 211155Z 12010KT 9999 FEW040 20/05 Q1023
LIRL - Latina (it-Afb), Italy
Distance from station: OSO 40km
Dati ricevuti: 21/03/2019 12:55
Sereno
Sereno
 Vento da O
Vento: O 6 km/h
Temperatura: 21°C
P.to Rugiada: 4°C
Umidità: 33%
Barometro: 1022 hPa
Summary: Sereno
Visibility: greater than 10 km
2019/03/21 11:55 LIRL 211155Z 26003KT CAVOK 21/04 Q1022
 
LIRG - Guidonia (it-Afb, Italy
Distance from station: NO 63km
Dati ricevuti: 21/03/2019 12:55
Sereno
Sereno
 Vento da ONO
Vento: ONO 9 km/h
Temperatura: 21°C
P.to Rugiada: 4°C
Umidità: 33%
Barometro: 1023 hPa
Summary: Sereno
Visibility: greater than 10 km
2019/03/21 11:55 LIRG 211155Z 29005KT CAVOK 21/04 Q1023
LIRA - Ciampino(It-Afb/, Italy
Distance from station: ONO 64km
Dati ricevuti: 21/03/2019 13:20
Sereno
Sereno
 Vento da N
Vento: N 17 km/h
Temperatura: 21°C
P.to Rugiada: 4°C
Umidità: 33%
Barometro: 1022 hPa
Summary: Sereno
Visibility: greater than 10 km
2019/03/21 12:20 LIRA 211220Z 01009KT 340V060 CAVOK 21/04 Q1022
 
LIRU - Roma/Urbe (it-Af, Italy
Distance from station: ONO 76km
Dati ricevuti: 21/03/2019 12:50
Sereno
Sereno
 Vento da N
Vento: N 19 km/h
Temperatura: 21°C
P.to Rugiada: 3°C
Umidità: 31%
Barometro: 1023 hPa
Summary: Sereno
Visibility: greater than 10 km
2019/03/21 11:50 LIRU 211150Z 36010KT CAVOK 21/03 Q1023
LIRE - Pratica Di Mare(, Italy
Distance from station: O 77km
Dati ricevuti: 21/03/2019 12:55
Sereno
Sereno
 Vento da NNO
Vento: NNO 11 km/h
Temperatura: 20°C
P.to Rugiada: 1°C
Umidità: 28%
Barometro: 1023 hPa
Summary: Sereno
Visibility: greater than 10 km
2019/03/21 11:55 LIRE 211155Z 34006KT CAVOK 20/01 Q1023 RMK SKC VIS MIN 9999 WIND THR13 35006KT WIND THR31 /////KT BLU
 
LIQN - Rieti, Italy
Distance from station: NNO 92km
Dati ricevuti: 21/03/2019 12:50
Sereno
Sereno
 Vento da varies
Vento: varies 6 km/h
Temperatura: 19°C
P.to Rugiada: 1°C
Umidità: 30%
Barometro: 1024 hPa
Summary: Sereno
Visibility: greater than 10 km
2019/03/21 11:50 LIQN 211150Z VRB03KT CAVOK 19/01 Q1024
LIRK - Terminillo, Italy
Distance from station: NNO 93km
Dati ricevuti: 21/03/2019 12:55

 Vento da varies
Vento: varies 28 km/h
Temperatura: 3°C
Temperatura del Vento: -3°C
P.to Rugiada: -4°C
Umidità: 60%
Barometro: 1027 hPa
2019/03/21 11:55 LIRK 211155Z AUTO VRB15KT //// 03/M04 Q1027
 
LIRF - Roma/Fiumicino, Italy
Distance from station: O 94km
Dati ricevuti: 21/03/2019 13:20
Sereno
Sereno
 Vento da NE
Vento: NE 13 km/h
Temperatura: 22°C
P.to Rugiada: 3°C
Umidità: 29%
Barometro: 1023 hPa
Summary: Sereno
Visibility: greater than 10 km
2019/03/21 12:20 LIRF 211220Z 04007KT 330V090 CAVOK 22/03 Q1023 NOSIG
LIRM - Grazzanise (it-A, Italy
Distance from station: SE 94km
Dati ricevuti: 21/03/2019 12:55
Sereno
Sereno
 Vento da ENE
Vento: ENE 37 km/h
Temperatura: 18°C
P.to Rugiada: 6°C
Umidità: 46%
Barometro: 1023 hPa
Summary: Sereno
Visibility: greater than 10 km
2019/03/21 11:55 LIRM 211155Z 06020KT CAVOK 18/06 Q1023
 
LIBP - Pescara, Italy
Distance from station: NE 108km
Dati ricevuti: 21/03/2019 12:50
Sereno
Sereno
 Vento da NNE
Vento: NNE 17 km/h
Temperatura: 15°C
P.to Rugiada: 5°C
Umidità: 51%
Barometro: 1030 hPa
Summary: Sereno
Visibility: greater than 10 km
2019/03/21 11:50 LIBP 211150Z 02009KT 350V050 CAVOK 15/05 Q1030
LIRN - Napoli/Capodichino, Italy
Distance from station: SE 120km
Dati ricevuti: 21/03/2019 13:20
Sereno
Sereno
 Vento da NE
Vento: NE 22 km/h
Temperatura: 19°C
P.to Rugiada: 7°C
Umidità: 46%
Barometro: 1023 hPa
Summary: Sereno
Visibility: greater than 10 km
2019/03/21 12:20 LIRN 211220Z 05012KT 030V090 CAVOK 19/07 Q1023 NOSIG
 
LIRV - Viterbo (it-Mil), Italy
Distance from station: NO 133km
Dati ricevuti: 21/03/2019 12:55
Sereno
Sereno
 Vento da varies
Vento: varies 0 km/h
Temperatura: 18°C
P.to Rugiada: 1°C
Umidità: 32%
Barometro: 1024 hPa
Summary: Sereno
Visibility: greater than 10 km
2019/03/21 11:55 LIRV 211155Z /////KT CAVOK 18/01 Q1024
LIQC - Capri, Italy
Distance from station: SSE 145km
Dati ricevuti: 21/03/2019 12:55
Sereno
Sereno
 Vento da ENE
Vento: ENE 19 km/h
Temperatura: 17°C
P.to Rugiada: 5°C
Umidità: 45%
Barometro: 1022 hPa
Summary: Sereno
Visibility: greater than 10 km
2019/03/21 11:55 LIQC 211155Z 06010KT CAVOK 17/05 Q1022 RMK SKC QUK 2 QUL 1 NE VIS MAR 20 KM VIS MIN 9999
 
LIRT - Trevico, Italy
Distance from station: ESE 172km
Dati ricevuti: 21/03/2019 07:55
Non Attivo
Few Clouds
Few Clouds
 Vento da E
Vento: E 11 km/h
Temperatura: 3°C
Temperatura del Vento: 0°C
P.to Rugiada: 1°C
Umidità: 87%
Barometro: 1024 hPa
Clouds: Few Clouds
Visibility: 10 km
Cloud details: Few Clouds 91 m
2019/03/21 06:55 LIRT 210655Z 09006KT 9999 FEW003 03/01 Q1024
LIRZ - Perugia, Italy
Distance from station: NNO 172km
Dati ricevuti: 21/03/2019 12:50
Sereno
Sereno
 Vento da NNE
Vento: NNE 28 km/h
Temperatura: 17°C
P.to Rugiada: 4°C
Umidità: 42%
Barometro: 1026 hPa
Summary: Sereno
Visibility: greater than 10 km
2019/03/21 11:50 LIRZ 211150Z 03015KT CAVOK 17/04 Q1026
 
LIRI - Pontecagnano (af, Italy
Distance from station: SE 177km
Dati ricevuti: 21/03/2019 13:00
Sereno
Sereno
 Vento da NE
Vento: NE 43 km/h, Raffica: 56 km/h
Temperatura: 18°C
P.to Rugiada: 6°C
Umidità: 46%
Barometro: 1023 hPa
Summary: Sereno
Visibility: greater than 10 km
2019/03/21 12:00 LIRI 211200Z 05023G30KT CAVOK 18/06 Q1023
LIBF - Foggia/Gino Lisa, Italy
Distance from station: E 183km
Dati ricevuti: 21/03/2019 12:50
Sereno
Sereno
 Vento da NNO
Vento: NNO 41 km/h
Temperatura: 14°C
P.to Rugiada: 8°C
Umidità: 67%
Barometro: 1027 hPa
Summary: Sereno
Visibility: greater than 10 km
2019/03/21 11:50 LIBF 211150Z 33022KT CAVOK 14/08 Q1027
 
LIQO - Monte Argentario, Italy
Distance from station: ONO 195km
Dati ricevuti: 21/03/2019 07:55
Non Attivo
Sereno
Sereno
 Vento da NE
Vento: NE 46 km/h
Temperatura: 4°C
Temperatura del Vento: -3°C
P.to Rugiada: -7°C
Umidità: 45%
Barometro: 1022 hPa
Summary: Sereno
Visibility: greater than 10 km
2019/03/21 06:55 LIQO 210655Z 05025KT CAVOK 04/M07 Q1022
LIBA - Amendola (it-Afb, Italy
Distance from station: E 198km
Dati ricevuti: 21/03/2019 12:55
Few Clouds
Few Clouds
 Vento da ONO
Vento: ONO 30 km/h
Temperatura: 16°C
P.to Rugiada: 8°C
Umidità: 59%
Barometro: 1026 hPa
Clouds: Few Clouds
Visibility: 10 km
Cloud details: Few Clouds 914 m
2019/03/21 11:55 LIBA 211155Z 29016KT 9999 FEW030 16/08 Q1026 RMK FEW VIS MIN 9999 WIND THR11 29017KT WIND THR29 /////KT BLU
 
LIBN - Lecce (it-Afb), Italy
Dati ricevuti: 21/03/2019 12:55
Sereno
Sereno
 Vento da N
Vento: N 24 km/h
Temperatura: 17°C
P.to Rugiada: 11°C
Umidità: 68%
Barometro: 1023 hPa
Summary: Sereno
Visibility: greater than 10 km
2019/03/21 11:55 LIBN 211155Z 35013KT CAVOK 17/11 Q1023 RMK FEW FEW200 VIS MIN 9999 WIND THR14 36014KT WIND THR32 35014KT BLU
LIPY - Ancona-Falconara, Italy
Dati ricevuti: 21/03/2019 12:50
Sereno
Sereno
 Vento da NO
Vento: NO 26 km/h
Temperatura: 13°C
P.to Rugiada: 7°C
Umidità: 67%
Barometro: 1031 hPa
Summary: Sereno
Visibility: greater than 10 km
2019/03/21 11:50 LIPY 211150Z 32014KT CAVOK 13/07 Q1031
 
LICJ - Palermo-Punta Raisi, Italy
Dati ricevuti: 21/03/2019 13:20
Few Clouds
Few Clouds
 Vento da E
Vento: E 30 km/h
Temperatura: 18°C
P.to Rugiada: 9°C
Umidità: 56%
Barometro: 1017 hPa
Clouds: Few Clouds
Visibility: 10 km
Cloud details: Few Clouds 762 m
2019/03/21 12:20 LICJ 211220Z 08016KT 9999 FEW025 18/09 Q1017
LIEB - Capo Bellavista, Italy
Dati ricevuti: 21/03/2019 12:55
Few Clouds
Few Clouds
 Vento da NE
Vento: NE 57 km/h
Temperatura: 12°C
P.to Rugiada: 8°C
Umidità: 77%
Barometro: 1022 hPa
Clouds: Few Clouds
Visibility: 10 km
Cloud details: Few Clouds 914 m
2019/03/21 11:55 LIEB 211155Z 04031KT 9999 FEW030 12/08 Q1022 RMK OVC SCT070 BKN090 QUK 4 QUL 3 NE VIS MAR 25 KM MON W CIME INC NC VIS MIN 9999
 
LIEC - Capo Carbonara, Italy
Dati ricevuti: 21/03/2019 12:55
Parz. nuvoloso
Parz. nuvoloso
 Vento da NE
Vento: NE 81 km/h, Raffica: 109 km/h
Temperatura: 12°C
P.to Rugiada: 9°C
Umidità: 82%
Barometro: 1018 hPa
Clouds: Parz. nuvoloso
Visibility: 10 km
Cloud details: Few Clouds 549 m
Parz. nuvoloso 914 m
2019/03/21 11:55 LIEC 211155Z 04044G59KT 9999 FEW018 SCT030 12/09 Q1018 RMK BKN QUK 5 QUL 0 VIS MAR 15 KM VIS MIN 9999
LIED - Cagliari-Decimomannu(It-A, Italy
Dati ricevuti: 21/03/2019 12:55
Parz. nuvoloso
Parz. nuvoloso
 Vento da NNE
Vento: NNE 19 km/h
Temperatura: 16°C
P.to Rugiada: 12°C
Umidità: 77%
Barometro: 1020 hPa
Clouds: Parz. nuvoloso
Visibility: 10 km
Cloud details: Parz. nuvoloso 914 m
Parz. nuvoloso 1524 m
2019/03/21 11:55 LIED 211155Z 03010KT 9999 SCT030 SCT050 16/12 Q1020 RMK BKN VIS MIN 9999 WIND THR35 /////KT WIND THR17 /////KT BLU
 
LIEE - Cagliari-Elmas(A, Italy
Dati ricevuti: 21/03/2019 13:20
Pioviggine, Few clouds
Pioviggine, Few clouds
 Vento da ENE
Vento: ENE 11 km/h
Temperatura: 16°C
P.to Rugiada: 8°C
Umidità: 59%
Barometro: 1020 hPa
Summary: Pioviggine
Clouds: Few Clouds
Visibility: 10 km
Cloud details: Few Clouds 1372 m
2019/03/21 12:20 LIEE 211220Z 07006KT 030V150 9999 -RA FEW045 16/08 Q1020
LIEO - Olbia-Costa Smeralda, Italy
Dati ricevuti: 21/03/2019 13:20
Few Clouds
Few Clouds
 Vento da NE
Vento: NE 30 km/h
Temperatura: 16°C
P.to Rugiada: 7°C
Umidità: 55%
Barometro: 1025 hPa
Clouds: Few Clouds
Visibility: 10 km
Cloud details: Few Clouds 1219 m
2019/03/21 12:20 LIEO 211220Z 05016KT 9999 FEW040 16/07 Q1025
 
LIEA - Alghero, Italy
Dati ricevuti: 21/03/2019 13:20
Sereno
Sereno
 Vento da ENE
Vento: ENE 30 km/h
Temperatura: 17°C
P.to Rugiada: 5°C
Umidità: 45%
Barometro: 1023 hPa
Summary: Sereno
Visibility: greater than 10 km
2019/03/21 12:20 LIEA 211220Z 06016KT CAVOK 17/05 Q1023
LICA - Catanzaro-Lamezia Terme, Italy
Dati ricevuti: 21/03/2019 12:50
Few Clouds
Few Clouds
 Vento da E
Vento: E 19 km/h
Temperatura: 19°C
P.to Rugiada: 8°C
Umidità: 49%
Barometro: 1022 hPa
Clouds: Few Clouds
Visibility: 10 km
Cloud details: Few Clouds 914 m
2019/03/21 11:50 LICA 211150Z 10010KT 9999 FEW030 19/08 Q1022
 
LIBQ - Cosenza-Monte Scuro, Italy
Dati ricevuti: 21/03/2019 08:55
Non Attivo
Nebbia
Nebbia
 Vento da ENE
Vento: ENE 46 km/h
Temperatura: 3°C
Temperatura del Vento: -4°C
P.to Rugiada: 0°C
Umidità: 81%
Barometro: 1020 hPa
Summary: Nebbia
Visibility: 0 km
2019/03/21 07:55 LIBQ 210755Z 07025KT 0000 FG VV/// 03/00 Q1020 RMK MON INVIS VAL INVIS VIS MIN 0000
LICR - Reggio Calabria, Italy
Dati ricevuti: 21/03/2019 12:50
Sereno
Sereno
 Vento da varies
Vento: varies 7 km/h
Temperatura: 20°C
P.to Rugiada: 5°C
Umidità: 38%
Barometro: 1019 hPa
Summary: Sereno
Visibility: greater than 10 km
2019/03/21 11:50 LICR 211150Z VRB04KT CAVOK 20/05 Q1019
 
LIBV - Bari-Gioia Del Colle, Italy
Dati ricevuti: 21/03/2019 12:55
Parz. nuvoloso
Parz. nuvoloso
 Vento da N
Vento: N 28 km/h
Temperatura: 14°C
P.to Rugiada: 9°C
Umidità: 72%
Barometro: 1025 hPa
Clouds: Parz. nuvoloso
Visibility: 10 km
Cloud details: Parz. nuvoloso 610 m
2019/03/21 11:55 LIBV 211155Z 35015KT 9999 SCT020 14/09 Q1025 RMK SCT VIS MIN 9999 WIND THR32 01018KT WIND THR14 36016KT BLU
LIBD - Bari-Palese Macchie, Italy
Dati ricevuti: 21/03/2019 13:20
Sereno
Sereno
 Vento da N
Vento: N 26 km/h
Temperatura: 15°C
P.to Rugiada: 9°C
Umidità: 68%
Barometro: 1026 hPa
Summary: Sereno
Visibility: greater than 10 km
2019/03/21 12:20 LIBD 211220Z 36014KT CAVOK 15/09 Q1026
 
LIBR - Brindisi-Casale, Italy
Dati ricevuti: 21/03/2019 13:20
Sereno
Sereno
 Vento da NNO
Vento: NNO 26 km/h
Temperatura: 16°C
P.to Rugiada: 10°C
Umidità: 68%
Barometro: 1024 hPa
Summary: Sereno
Visibility: greater than 10 km
2019/03/21 12:20 LIBR 211220Z 34014KT CAVOK 16/10 Q1024
LIRT - Trevico, Italy
Dati ricevuti: 21/03/2019 07:55
Non Attivo
Few Clouds
Few Clouds
 Vento da E
Vento: E 11 km/h
Temperatura: 3°C
Temperatura del Vento: 0°C
P.to Rugiada: 1°C
Umidità: 87%
Barometro: 1024 hPa
Clouds: Few Clouds
Visibility: 10 km
Cloud details: Few Clouds 91 m
2019/03/21 06:55 LIRT 210655Z 09006KT 9999 FEW003 03/01 Q1024
 
LICB - Comiso, Italy
Dati ricevuti: 21/03/2019 12:50
Parz. nuvoloso
Parz. nuvoloso
 Vento da E
Vento: E 30 km/h
Temperatura: 16°C
P.to Rugiada: 10°C
Umidità: 68%
Barometro: 1018 hPa
Clouds: Parz. nuvoloso
Visibility: 10 km
Cloud details: Parz. nuvoloso 914 m
2019/03/21 11:50 LICB 211150Z 09016KT 070V130 9999 SCT030 16/10 Q1018
LICL - Gela, Italy
Dati ricevuti: 21/03/2019 12:55
Parz. nuvoloso
Parz. nuvoloso
 Vento da ENE
Vento: ENE 44 km/h, Raffica: 81 km/h
Temperatura: 17°C
P.to Rugiada: 7°C
Umidità: 52%
Barometro: 1017 hPa
Clouds: Parz. nuvoloso
Visibility: 10 km
Cloud details: Parz. nuvoloso 1219 m
2019/03/21 11:55 LICL 211155Z 07024G44KT 9999 SCT040 17/07 Q1017 RMK BKN BKN100 QUK 4 QUL 1 SE VIS MAR 14 KM VIS MIN 9999
 
LIBN - Lecce (it-Afb), Italy
Dati ricevuti: 21/03/2019 12:55
Sereno
Sereno
 Vento da N
Vento: N 24 km/h
Temperatura: 17°C
P.to Rugiada: 11°C
Umidità: 68%
Barometro: 1023 hPa
Summary: Sereno
Visibility: greater than 10 km
2019/03/21 11:55 LIBN 211155Z 35013KT CAVOK 17/11 Q1023 RMK FEW FEW200 VIS MIN 9999 WIND THR14 36014KT WIND THR32 35014KT BLU
LICJ - Palermo-Punta Raisi, Italy
Dati ricevuti: 21/03/2019 13:20
Few Clouds
Few Clouds
 Vento da E
Vento: E 30 km/h
Temperatura: 18°C
P.to Rugiada: 9°C
Umidità: 56%
Barometro: 1017 hPa
Clouds: Few Clouds
Visibility: 10 km
Cloud details: Few Clouds 762 m
2019/03/21 12:20 LICJ 211220Z 08016KT 9999 FEW025 18/09 Q1017
 
LICZ - Catania-Sigonella (nas), Italy
Dati ricevuti: 21/03/2019 12:55
Parz. nuvoloso
Parz. nuvoloso
 Vento da ENE
Vento: ENE 41 km/h
Temperatura: 15°C
P.to Rugiada: 12°C
Umidità: 82%
Barometro: 1020 hPa
Clouds: Parz. nuvoloso
Visibility: 8 km
Cloud details: Parz. nuvoloso 975 m
Parz. nuvoloso 2438 m
2019/03/21 11:55 LICZ 211155Z 06022KT 8000 SCT032 SCT080 15/12 Q1020 RMK OVC VIS MIN 8000 WIND THR28 07022KT WIND THR10 07022KT A3015 BLU
LICC - Catania-Fontanarossa, Italy
Dati ricevuti: 21/03/2019 13:20
Molto nuvoloso
Molto nuvoloso
 Vento da ENE
Vento: ENE 35 km/h
Temperatura: 16°C
P.to Rugiada: 11°C
Umidità: 72%
Barometro: 1020 hPa
Clouds: Molto nuvoloso
Visibility: 8 km
Cloud details: Parz. nuvoloso 1829 m
Molto nuvoloso 3048 m
2019/03/21 12:20 LICC 211220Z 06019KT 8000 SCT060 BKN100 16/11 Q1020
 
LICT - Trapani-Birgi (a, Italy
Dati ricevuti: 21/03/2019 12:55
Parz. nuvoloso
Parz. nuvoloso
 Vento da OSO
Vento: OSO 15 km/h
Temperatura: 16°C
P.to Rugiada: 13°C
Umidità: 83%
Barometro: 1017 hPa
Clouds: Parz. nuvoloso
Visibility: 10 km
Cloud details: Parz. nuvoloso 701 m
2019/03/21 11:55 LICT 211155Z 25008KT 9999 SCT023 16/13 Q1017
LICD - Agrigento-Lampedusa, Italy
Dati ricevuti: 21/03/2019 12:50
Sereno
Sereno
 Vento da SO
Vento: SO 24 km/h
Temperatura: 15°C
P.to Rugiada: 12°C
Umidità: 82%
Barometro: 1014 hPa
Summary: Sereno
Visibility: greater than 10 km
2019/03/21 11:50 LICD 211150Z 22013KT CAVOK 15/12 Q1014
 
LICG - Pantelleria(It-A, Italy
Dati ricevuti: 21/03/2019 12:55
Parz. nuvoloso
Parz. nuvoloso
 Vento da E
Vento: E 39 km/h
Temperatura: 13°C
P.to Rugiada: 11°C
Umidità: 88%
Barometro: 1015 hPa
Clouds: Parz. nuvoloso
Visibility: 8 km
Cloud details: Few Clouds 335 m
Parz. nuvoloso 762 m
2019/03/21 11:55 LICG 211155Z 08021KT 8000 FEW011 SCT025 13/11 Q1015
LIPX - Villafranca(Cv/M, Italy
Dati ricevuti: 21/03/2019 13:20
Sereno
Sereno
 Vento da varies
Vento: varies 6 km/h
Temperatura: 15°C
P.to Rugiada: -4°C
Umidità: 27%
Barometro: 1032 hPa
Summary: Sereno
Visibility: greater than 10 km
2019/03/21 12:20 LIPX 211220Z VRB03KT CAVOK 15/M04 Q1032
 
LIPO - Brescia/Montichiari, Italy
Dati ricevuti: 21/03/2019 12:50
Sereno
Sereno
 Vento da O
Vento: O 6 km/h
Temperatura: 14°C
P.to Rugiada: -4°C
Umidità: 29%
Barometro: 1032 hPa
Summary: Sereno
Visibility: greater than 10 km
2019/03/21 11:50 LIPO 211150Z 26003KT CAVOK 14/M04 Q1032
LIPL - Ghedi (it-Afb), Italy
Dati ricevuti: 21/03/2019 12:55
Sereno
Sereno
 Vento da SE
Vento: SE 4 km/h
Temperatura: 13°C
P.to Rugiada: 3°C
Umidità: 51%
Barometro: 1033 hPa
Summary: Sereno
Visibility: greater than 10 km
2019/03/21 11:55 LIPL 211155Z 14002KT CAVOK 13/03 Q1033 RMK SKC VIS MIN 9999 WIND THR31 29003KT WIND THR13 12004KT BLU
 
LIMP - Parma, Italy
Dati ricevuti: 21/03/2019 12:50
Sereno
Sereno
 Vento da N
Vento: N 9 km/h
Temperatura: 13°C
P.to Rugiada: -2°C
Umidità: 36%
Barometro: 1033 hPa
Summary: Sereno
Visibility: greater than 10 km
2019/03/21 11:50 LIMP 211150Z 01005KT 330V040 CAVOK 13/M02 Q1033
LIMS - Piacenza (it-Afb, Italy
Dati ricevuti: 21/03/2019 12:55
Sereno
Sereno
 Vento da ESE
Vento: ESE 13 km/h
Temperatura: 13°C
P.to Rugiada: -5°C
Umidità: 28%
Barometro: 1032 hPa
Summary: Sereno
Visibility: greater than 10 km
2019/03/21 11:55 LIMS 211155Z 12007KT CAVOK 13/M05 Q1032
 
LIPF - Ferrara (aut), Italy
Dati ricevuti: 21/03/2019 12:55

 
2019/03/21 11:55 LIPF 211155Z ///03KT CAVOK 15/04 Q1033
LIPE - Bologna/Borgo (a, Italy
Dati ricevuti: 21/03/2019 13:20
Sereno
Sereno
 Vento da varies
Vento: varies 9 km/h
Temperatura: 13°C
P.to Rugiada: 0°C
Umidità: 41%
Barometro: 1032 hPa
Summary: Sereno
Visibility: greater than 10 km
2019/03/21 12:20 LIPE 211220Z VRB05KT CAVOK 13/00 Q1032
 
LIPU - Padova (civ/It-A, Italy
Dati ricevuti: 21/03/2019 08:00
Non Attivo
Sereno
Sereno
 Vento da varies
Vento: varies 6 km/h
Temperatura: 7°C
P.to Rugiada: -1°C
Umidità: 57%
Barometro: 1033 hPa
Summary: Sereno
Visibility: greater than 10 km
2019/03/21 07:00 LIPU 210700Z VRB03KT CAVOK 07/M01 Q1033
LIME - Bergamo/Orio Ser, Italy
Dati ricevuti: 21/03/2019 13:20
Sereno
Sereno
 Vento da SO
Vento: SO 9 km/h
Temperatura: 13°C
P.to Rugiada: -2°C
Umidità: 36%
Barometro: 1032 hPa
Summary: Sereno
Visibility: greater than 10 km
2019/03/21 12:20 LIME 211220Z 23005KT 170V300 CAVOK 13/M02 Q1032 NOSIG
 
LIMT - Cisa Pass, Italy
Dati ricevuti: 13/04/2018 12:55
Non Attivo
Nebbia
Nebbia
 Vento da SSO
Vento: SSO 15 km/h
Temperatura: 6°C
Temperatura del Vento: 3°C
P.to Rugiada: 4°C
Umidità: 87%
Barometro: 1013 hPa
Summary: Nebbia
Visibility: 0 km
2018/04/13 10:55 LIMT 131055Z 20008KT 0000 FG VV/// 06/04 Q1013 RMK MON INVIS VAL INVIS VIS MIN 0000
LIVC - Cimone Mountain, Italy
Dati ricevuti: 21/03/2019 07:55
Non Attivo
Sereno
Sereno
 Vento da NE
Vento: NE 46 km/h
Temperatura: -7°C
Temperatura del Vento: -18°C
P.to Rugiada: -8°C
Umidità: 93%
Barometro: 1025 hPa
Summary: Sereno
Visibility: greater than 10 km
2019/03/21 06:55 LIVC 210655Z 05025KT CAVOK M07/M08 Q1025
 
LIVP - Paganella Mounta, Italy
Dati ricevuti: 21/03/2019 07:55
Non Attivo
Sereno
Sereno
 Vento da NNO
Vento: NNO 13 km/h
Temperatura: -2°C
Temperatura del Vento: -7°C
P.to Rugiada: -28°C
Umidità: 12%
Barometro: 1027 hPa
Summary: Sereno
Visibility: greater than 10 km
2019/03/21 06:55 LIVP 210655Z 34007KT CAVOK M02/M28 Q1027
LIML - Milano/Linate, Italy
Dati ricevuti: 21/03/2019 13:20
Sereno
Sereno
 Vento da varies
Vento: varies 6 km/h
Temperatura: 14°C
P.to Rugiada: -2°C
Umidità: 33%
Barometro: 1032 hPa
Summary: Sereno
Visibility: greater than 10 km
2019/03/21 12:20 LIML 211220Z VRB03KT CAVOK 14/M02 Q1032 NOSIG
 
LIPS - Istrana (it-Afb), Italy
Dati ricevuti: 21/03/2019 12:55
Sereno
Sereno
 Vento da E
Vento: E 11 km/h
Temperatura: 15°C
P.to Rugiada: 2°C
Umidità: 42%
Barometro: 1032 hPa
Summary: Sereno
Visibility: greater than 10 km
2019/03/21 11:55 LIPS 211155Z 10006KT CAVOK 15/02 Q1032 RMK FEW FEW200 VIS MIN 9999 WIND THR26 05006KT WIND THR08 08005KT BLU
LIPH - Treviso(Civ/It-A, Italy
Dati ricevuti: 21/03/2019 13:20
Sereno
Sereno
 Vento da NE
Vento: NE 11 km/h
Temperatura: 15°C
P.to Rugiada: -2°C
Umidità: 31%
Barometro: 1032 hPa
Summary: Sereno
Visibility: greater than 10 km
2019/03/21 12:20 LIPH 211220Z 04006KT 350V090 CAVOK 15/M02 Q1032
 
LIPZ - Venezia/Tessera, Italy
Dati ricevuti: 21/03/2019 13:20
Sereno
Sereno
 Vento da E
Vento: E 19 km/h
Temperatura: 14°C
P.to Rugiada: 0°C
Umidità: 39%
Barometro: 1032 hPa
Summary: Sereno
Visibility: greater than 10 km
2019/03/21 12:20 LIPZ 211220Z 08010KT CAVOK 14/M00 Q1032 NOSIG
LIQW - Sarzana/Luni, Italy
Dati ricevuti: 21/03/2019 12:55
Sereno
Sereno
 Vento da N
Vento: N 13 km/h, Raffica: 31 km/h
Temperatura: 18°C
P.to Rugiada: 1°C
Umidità: 32%
Barometro: 1027 hPa
Summary: Sereno
Visibility: greater than 10 km
2019/03/21 11:55 LIQW 211155Z 35007G17KT CAVOK 18/01 Q1027
 
LIVR - Rolle Pass, Italy
Dati ricevuti: 21/03/2019 12:55
Sereno
Sereno
 Vento da NNE
Vento: NNE 4 km/h
Temperatura: 5°C
P.to Rugiada: -10°C
Umidità: 33%
Barometro: 1029 hPa
Summary: Sereno
Visibility: greater than 10 km
2019/03/21 11:55 LIVR 211155Z 02002KT CAVOK 05/M10 Q1029 RMK SKC MON LIB VIS MIN 9999
LIPK - Forli (civ/It-Af, Italy
Dati ricevuti: 21/03/2019 12:50
Sereno
Sereno
 Vento da NO
Vento: NO 11 km/h
Temperatura: 12°C
P.to Rugiada: -2°C
Umidità: 38%
Barometro: 1032 hPa
Summary: Sereno
Visibility: greater than 10 km
2019/03/21 11:50 LIPK 211150Z 32006KT CAVOK 12/M02 Q1032
 
LIMV - Giovi Pass, Italy
Dati ricevuti: 21/03/2019 07:55
Non Attivo
Sereno
Sereno
 Vento da varies
Vento: varies 0 km/h
Temperatura: 3°C
P.to Rugiada: -3°C
Umidità: 65%
Barometro: 1029 hPa
Summary: Sereno
Visibility: greater than 10 km
2019/03/21 06:55 LIMV 210655Z /////KT CAVOK 03/M03 Q1029
LIPB - Bolzano(Civ/It-A, Italy
Dati ricevuti: 21/03/2019 12:50
Sereno
Sereno
 Vento da varies
Vento: varies 6 km/h
Temperatura: 14°C
P.to Rugiada: -6°C
Umidità: 25%
Barometro: 1031 hPa
Summary: Sereno
Visibility: greater than 10 km
2019/03/21 11:50 LIPB 211150Z VRB03KT CAVOK 14/M06 Q1031
 
LIVD - Bolzano-Dobbiaco, Italy
Dati ricevuti: 21/03/2019 12:55

 
2019/03/21 11:55 LIVD 211155Z ///08KT CAVOK 06/M08 Q1032 RMK SCT SCT230 VIS MIN 9999
LIVE - Bolzano-Passo Resia, Italy
Dati ricevuti: 21/03/2019 12:55
Sereno
Sereno
 Vento da SSO
Vento: SSO 6 km/h
Temperatura: 10°C
P.to Rugiada: -11°C
Umidità: 22%
Barometro: 1030 hPa
Summary: Sereno
Visibility: greater than 10 km
2019/03/21 11:55 LIVE 211155Z 20003KT CAVOK 10/M11 Q1030 RMK SKC VIS MIN 9999
 
LIMH - Aosta-Pian Rosa (mtn T, Italy
Dati ricevuti: 21/03/2019 05:55
Non Attivo
Sereno
Sereno
 Vento da varies
Vento: varies 0 km/h
Temperatura: -8°C
P.to Rugiada: -30°C
Umidità: 15%
Barometro: 1026 hPa
Summary: Sereno
Visibility: greater than 10 km
2019/03/21 04:55 LIMH 210455Z /////KT CAVOK M08/M30 Q1026
LIMZ - Cuneo/Levaldigi, Italy
Dati ricevuti: 21/03/2019 12:50
Sereno
Sereno
 Vento da varies
Vento: varies 9 km/h
Temperatura: 11°C
P.to Rugiada: -2°C
Umidità: 41%
Barometro: 1033 hPa
Summary: Sereno
Visibility: greater than 10 km
2019/03/21 11:50 LIMZ 211150Z VRB05KT CAVOK 11/M02 Q1033
 
LIMK - Torino-Bric Della Croce, Italy
Dati ricevuti: 21/03/2019 07:55
Non Attivo
Sereno
Sereno
 Vento da NE
Vento: NE 6 km/h
Temperatura: 5°C
P.to Rugiada: -2°C
Umidità: 61%
Barometro: 1031 hPa
Summary: Sereno
Visibility: greater than 10 km
2019/03/21 06:55 LIMK 210655Z 05003KT CAVOK 05/M02 Q1031
LIMN - Novara-Cameri (it-Afb), Italy
Dati ricevuti: 21/03/2019 12:55
Sereno
Sereno
 Vento da SO
Vento: SO 7 km/h
Temperatura: 13°C
P.to Rugiada: -1°C
Umidità: 38%
Barometro: 1032 hPa
Summary: Sereno
Visibility: greater than 10 km
2019/03/21 11:55 LIMN 211155Z 22004KT 150V260 CAVOK 13/M01 Q1032 RMK SKC VIS MIN 9999 BLU
 
LIPA - Pordenone-Aviano (it/Us-Af, Italy
Dati ricevuti: 21/03/2019 12:55
Sereno
Sereno
 Vento da S
Vento: S 7 km/h
Temperatura: 14°C
P.to Rugiada: -2°C
Umidità: 33%
Barometro: 1031 hPa
Summary: Sereno
Visibility: greater than 10 km
2019/03/21 11:55 LIPA 211155Z 17004KT CAVOK 14/M02 Q1031 RMK FEW FEW200 VIS MIN 9999 WIND THR05 16005KT WIND THR23 13005KT A3047 BLU
LIPI - Udine-Rivolto (it-Afb), Italy
Dati ricevuti: 21/03/2019 12:55
Sereno
Sereno
 Vento da varies
Vento: varies 0 km/h
Temperatura: 16°C
P.to Rugiada: -2°C
Umidità: 29%
Barometro: 1031 hPa
Summary: Sereno
Visibility: greater than 10 km
2019/03/21 11:55 LIPI 211155Z /////KT CAVOK 16/M02 Q1031 RMK SCT SCT200 VIS MIN 9999 WIND THR06 09008KT WIND THR24 07007KT BLU
 
LIVO - Udine-Tarvisio, Italy
Dati ricevuti: 21/03/2019 12:55
Sereno
Sereno
 Vento da ESE
Vento: ESE 9 km/h
Temperatura: 6°C
Temperatura del Vento: 4°C
P.to Rugiada: -2°C
Umidità: 57%
Barometro: 1033 hPa
Summary: Sereno
Visibility: greater than 10 km
2019/03/21 11:55 LIVO 211155Z 12005KT CAVOK 06/M02 Q1033 RMK FEW FEW100 VIS MIN 9999
LIPQ - Trieste-Ronchi Dei Legionari, Italy
Dati ricevuti: 21/03/2019 13:20
Sereno
Sereno
 Vento da ESE
Vento: ESE 26 km/h
Temperatura: 16°C
P.to Rugiada: -1°C
Umidità: 31%
Barometro: 1031 hPa
Summary: Sereno
Visibility: greater than 10 km
2019/03/21 12:20 LIPQ 211220Z 11014KT CAVOK 16/M01 Q1031
 
LIVT - Trieste, Italy
Dati ricevuti: 21/03/2019 12:55
Sereno
Sereno
 Vento da NE
Vento: NE 24 km/h, Raffica: 59 km/h
Temperatura: 14°C
P.to Rugiada: -2°C
Umidità: 33%
Barometro: 1030 hPa
Summary: Sereno
Visibility: greater than 10 km
2019/03/21 11:55 LIVT 211155Z 04013G32KT CAVOK 14/M02 Q1030 RMK SKC QUK 3 QUL 2 NE VIS MAR 20 KM VIS MIN 9999
LIRQ - Firenze/Peretola, Italy
Dati ricevuti: 21/03/2019 13:20
Sereno
Sereno
 Vento da NNE
Vento: NNE 28 km/h, Raffica: 46 km/h
Temperatura: 17°C
P.to Rugiada: 1°C
Umidità: 34%
Barometro: 1028 hPa
Summary: Sereno
Visibility: greater than 10 km
2019/03/21 12:20 LIRQ 211220Z 02015G25KT 320V060 CAVOK 17/01 Q1028 WS R05
 
LIPK - Forli (civ/It-Af, Italy
Dati ricevuti: 21/03/2019 12:50
Sereno
Sereno
 Vento da NO
Vento: NO 11 km/h
Temperatura: 12°C
P.to Rugiada: -2°C
Umidità: 38%
Barometro: 1032 hPa
Summary: Sereno
Visibility: greater than 10 km
2019/03/21 11:50 LIPK 211150Z 32006KT CAVOK 12/M02 Q1032
LIRS - Grosseto (it-Afb, Italy
Dati ricevuti: 21/03/2019 12:55
Sereno
Sereno
 Vento da NNE
Vento: NNE 30 km/h
Temperatura: 19°C
P.to Rugiada: 4°C
Umidità: 37%
Barometro: 1024 hPa
Summary: Sereno
Visibility: greater than 10 km
2019/03/21 11:55 LIRS 211155Z 03016KT CAVOK 19/04 Q1024
 
LIRP - Pisa (civ/It-Afb, Italy
Dati ricevuti: 21/03/2019 13:15
Sereno
Sereno
 Vento da ENE
Vento: ENE 22 km/h
Temperatura: 17°C
P.to Rugiada: 1°C
Umidità: 34%
Barometro: 1027 hPa
Summary: Sereno
Visibility: greater than 10 km
2019/03/21 12:15 LIRP 211215Z 07012KT CAVOK 17/01 Q1027 NOSIG
LIVF - Frontone, Italy
Dati ricevuti: 21/03/2019 07:55
Non Attivo
Few Clouds
Few Clouds
 Vento da OSO
Vento: OSO 15 km/h
Temperatura: 4°C
Temperatura del Vento: 1°C
P.to Rugiada: 1°C
Umidità: 81%
Barometro: 1027 hPa
Clouds: Few Clouds
Visibility: 10 km
Cloud details: Few Clouds 457 m
2019/03/21 06:55 LIVF 210655Z 24008KT 9999 FEW015 04/01 Q1027
 
LIPC - Cervia (it-Afb), Italy
Dati ricevuti: 21/03/2019 12:55
Sereno
Sereno
 Vento da N
Vento: N 7 km/h
Temperatura: 13°C
P.to Rugiada: 2°C
Umidità: 47%
Barometro: 1032 hPa
Summary: Sereno
Visibility: greater than 10 km
2019/03/21 11:55 LIPC 211155Z 01004KT CAVOK 13/02 Q1032
LIPR - Rimini (civ/It-A, Italy
Dati ricevuti: 21/03/2019 13:20
Sereno
Sereno
 Vento da N
Vento: N 9 km/h
Temperatura: 13°C
P.to Rugiada: 1°C
Umidità: 44%
Barometro: 1032 hPa
Summary: Sereno
Visibility: greater than 10 km
2019/03/21 12:20 LIPR 211220Z 36005KT 280V070 CAVOK 13/01 Q1032
 
LIRX - Monte Calamita, Italy
Dati ricevuti: 21/03/2019 12:55
Sereno
Sereno
 Vento da NNE
Vento: NNE 13 km/h
Temperatura: 14°C
P.to Rugiada: 2°C
Umidità: 44%
Barometro: 1026 hPa
Summary: Sereno
Visibility: greater than 10 km
2019/03/21 11:55 LIRX 211155Z 03007KT CAVOK 14/02 Q1026 RMK SKC VIS MIN 9999 VIS MAR 30 KM
LIVM - Punta Marina/Rav, Italy
Dati ricevuti: 21/03/2019 12:55
Sereno
Sereno
 Vento da E
Vento: E 6 km/h
Temperatura: 13°C
P.to Rugiada: 0°C
Umidità: 41%
Barometro: 1033 hPa
Summary: Sereno
Visibility: greater than 10 km
2019/03/21 11:55 LIVM 211155Z 09003KT CAVOK 13/00 Q1033 RMK SKC QUK 1 QUL 0 VIS MAR 28 KM VIS MIN 9999